Time;durP1;ratioP1;P1;durP2;ratioP2;P2;SDS_P1;SDS_P2;PMS_P1;PMS_P2;Temp;Humidity;BMP_temperature;BMP_pressure;BME280_temperature;BME280_humidity;BME280_pressure;Samples;Min_cycle;Max_cycle;Signal;HPM_P1;HPM_P2
2021/07/26 00:01:27;;;;;;;;;;;;;;;29.13;39.34;96921.59;5048488;28;1187;-56
2021/07/26 00:03:52;;;;;;;;;;;;;;;29.02;39.15;96913.91;5041901;28;1632;-56
2021/07/26 00:06:18;;;;;;;;;;;;;;;29.09;39.29;96911.47;5048180;28;1969;-54
2021/07/26 00:08:43;;;;;;;;;;;;;;;29.09;39.10;96912.28;5048067;28;1140;-55
2021/07/26 00:11:09;;;;;;;;;;;;;;;28.99;39.21;96908.06;5047058;28;1684;-55
2021/07/26 00:13:34;;;;;;;;;;;;;;;29.00;39.48;96912.41;5049780;28;1212;-54
2021/07/26 00:15:59;;;;;;;;;;;;;;;29.06;39.43;96912.59;5045959;28;1275;-54
2021/07/26 00:18:27;;;;;;;;;;;;;;;29.08;39.50;96921.25;5049115;28;1382;-56
2021/07/26 00:20:52;;;;;;;;;;;;;;;29.07;39.20;96922.25;5050445;28;1614;-55
2021/07/26 00:23:17;;;;;;;;;;;;;;;29.13;39.11;96924.25;5047275;28;958;-54
2021/07/26 00:25:42;;;;;;;;;;;;;;;29.08;39.36;96915.94;5046723;28;1653;-55
2021/07/26 00:28:08;;;;;;;;;;;;;;;29.04;39.42;96919.06;5048490;28;1967;-54
2021/07/26 00:30:34;;;;;;;;;;;;;;;29.20;38.75;96917.31;5047986;28;1136;-55
2021/07/26 00:32:59;;;;;;;;;;;;;;;29.04;39.37;96914.59;5046143;28;1565;-54
2021/07/26 00:35:24;;;;;;;;;;;;;;;29.03;39.41;96910.25;5048737;28;1295;-54
2021/07/26 00:37:49;;;;;;;;;;;;;;;29.07;39.36;96905.47;5048418;28;1199;-54
2021/07/26 00:40:15;;;;;;;;;;;;;;;29.12;39.27;96909.31;5047840;28;2038;-55
2021/07/26 00:42:40;;;;;;;;;;;;;;;29.08;39.07;96904.50;5048807;28;1206;-54
2021/07/26 00:45:05;;;;;;;;;;;;;;;29.15;39.19;96900.19;5044990;28;1532;-56
2021/07/26 00:47:31;;;;;;;;;;;;;;;29.05;39.34;96910.09;5046060;28;1972;-53
2021/07/26 00:49:56;;;;;;;;;;;;;;;29.06;39.08;96899.31;5045788;28;1470;-54
2021/07/26 00:52:21;;;;;;;;;;;;;;;29.19;39.06;96897.06;5046843;28;1354;-53
2021/07/26 00:54:46;;;;;;;;;;;;;;;29.14;39.03;96909.97;5040868;28;1271;-56
2021/07/26 00:57:11;;;;;;;;;;;;;;;29.05;39.07;96908.28;5043170;28;1778;-54
2021/07/26 00:59:37;;;;;;;;;;;;;;;29.03;39.21;96907.59;5032563;28;1244;-54
2021/07/26 01:02:02;;;;;;;;;;;;;;;29.04;39.41;96909.28;5034366;28;1393;-55
2021/07/26 01:04:27;;;;;;;;;;;;;;;29.08;38.94;96915.94;5044879;28;1621;-54
2021/07/26 01:06:53;;;;;;;;;;;;;;;29.15;39.02;96916.13;5045017;28;1902;-54
2021/07/26 01:09:18;;;;;;;;;;;;;;;29.06;39.25;96920.56;5037005;28;1129;-55
2021/07/26 01:11:43;;;;;;;;;;;;;;;29.10;39.15;96924.56;5047977;28;1664;-55
2021/07/26 01:14:09;;;;;;;;;;;;;;;29.04;39.31;96933.16;5044686;28;1596;-55
2021/07/26 01:16:35;;;;;;;;;;;;;;;29.06;39.38;96933.00;5047894;28;1292;-55
2021/07/26 01:19:01;;;;;;;;;;;;;;;29.09;39.14;96933.53;5049104;28;1222;-55
2021/07/26 01:21:26;;;;;;;;;;;;;;;29.06;39.26;96939.16;5044765;28;1633;-55
2021/07/26 01:23:51;;;;;;;;;;;;;;;29.11;39.05;96944.00;5045576;28;1661;-54
2021/07/26 01:26:20;;;;;;;;;;;;;;;29.03;39.27;96942.13;5046806;28;1914;-54
2021/07/26 01:28:47;;;;;;;;;;;;;;;29.04;39.39;96943.78;5048185;28;1688;-54
2021/07/26 01:31:12;;;;;;;;;;;;;;;28.96;39.39;96954.34;5047043;28;1164;-54
2021/07/26 01:33:37;;;;;;;;;;;;;;;29.03;39.08;96947.44;5045211;28;1655;-55
2021/07/26 01:36:03;;;;;;;;;;;;;;;29.12;39.04;96949.13;5048183;28;1358;-53
2021/07/26 01:38:28;;;;;;;;;;;;;;;29.04;39.18;96949.09;5046001;28;1117;-54
2021/07/26 01:40:54;;;;;;;;;;;;;;;29.12;38.91;96948.31;5047394;28;1585;-55
2021/07/26 01:43:19;;;;;;;;;;;;;;;29.13;38.98;96949.97;5050481;28;1139;-55
2021/07/26 01:46:11;;;;;;;;;;;;;;;29.23;38.86;96952.50;5045929;28;1528;-52
2021/07/26 01:48:42;;;;;;;;;;;;;;;29.01;39.27;96957.38;5020809;28;1972;-54
2021/07/26 01:51:11;;;;;;;;;;;;;;;29.08;39.10;96958.44;5046945;28;1748;-53
2021/07/26 01:53:36;;;;;;;;;;;;;;;29.02;39.41;96961.69;5045572;28;1022;-56
2021/07/26 01:56:01;;;;;;;;;;;;;;;29.18;39.14;96960.97;5043860;28;1538;-54
2021/07/26 01:58:28;;;;;;;;;;;;;;;29.06;39.15;96967.50;5049259;28;1286;-54
2021/07/26 02:00:53;;;;;;;;;;;;;;;29.12;38.89;96949.13;5049048;28;1280;-55
2021/07/26 02:03:18;;;;;;;;;;;;;;;29.07;39.37;96947.94;5047079;28;1561;-56
2021/07/26 02:05:44;;;;;;;;;;;;;;;29.09;39.01;96945.97;5045284;28;1374;-55
2021/07/26 02:08:09;;;;;;;;;;;;;;;29.05;39.17;96949.91;5047474;28;1910;-55
2021/07/26 02:10:34;;;;;;;;;;;;;;;29.07;39.20;96942.63;5045877;28;1582;-53
2021/07/26 02:12:59;;;;;;;;;;;;;;;29.03;39.38;96952.75;5045232;28;1239;-55
2021/07/26 02:15:25;;;;;;;;;;;;;;;29.05;39.13;96949.91;5045725;28;1300;-55
2021/07/26 02:17:50;;;;;;;;;;;;;;;29.13;39.21;96949.97;5046972;28;1640;-53
2021/07/26 02:20:16;;;;;;;;;;;;;;;29.15;38.95;96947.97;5045980;28;2014;-53
2021/07/26 02:22:41;;;;;;;;;;;;;;;29.04;39.15;96942.94;5045988;28;1188;-54
2021/07/26 02:25:06;;;;;;;;;;;;;;;29.09;39.32;96944.16;5046440;28;1589;-54
2021/07/26 02:27:32;;;;;;;;;;;;;;;29.18;38.78;96945.03;5045482;28;1965;-56
2021/07/26 02:29:57;;;;;;;;;;;;;;;29.00;39.34;96950.41;5046493;28;1085;-55
2021/07/26 02:32:22;;;;;;;;;;;;;;;29.19;38.88;96950.16;5048785;28;1108;-56
2021/07/26 02:34:47;;;;;;;;;;;;;;;29.14;39.02;96951.63;5043756;28;1632;-54
2021/07/26 02:37:12;;;;;;;;;;;;;;;29.09;39.00;96949.47;5052853;28;1133;-55
2021/07/26 02:39:38;;;;;;;;;;;;;;;29.02;39.27;96959.03;5051177;28;1172;-55
2021/07/26 02:42:03;;;;;;;;;;;;;;;29.03;39.28;96955.41;5049279;28;1605;-55
2021/07/26 02:44:28;;;;;;;;;;;;;;;29.07;39.20;96956.75;5049359;28;1676;-54
2021/07/26 02:46:53;;;;;;;;;;;;;;;29.06;39.19;96968.34;5049601;28;1902;-54
2021/07/26 02:49:19;;;;;;;;;;;;;;;29.04;39.09;96961.53;5051461;28;1168;-54
2021/07/26 02:51:44;;;;;;;;;;;;;;;29.06;39.30;96955.06;5049349;28;982;-53
2021/07/26 02:54:09;;;;;;;;;;;;;;;29.11;39.13;96962.56;5050451;28;1656;-55
2021/07/26 02:56:35;;;;;;;;;;;;;;;29.04;39.08;96953.56;5047337;28;1610;-55
2021/07/26 02:59:00;;;;;;;;;;;;;;;29.12;39.10;96957.09;5049479;28;1219;-55
2021/07/26 03:01:25;;;;;;;;;;;;;;;29.03;39.29;96962.53;5052625;28;1125;-55
2021/07/26 03:03:50;;;;;;;;;;;;;;;29.05;38.95;96968.50;5049342;28;1522;-54
2021/07/26 03:06:19;;;;;;;;;;;;;;;29.00;39.18;96969.00;5048845;28;1557;-55
2021/07/26 03:08:44;;;;;;;;;;;;;;;29.03;39.22;96973.97;5048962;28;1310;-54
2021/07/26 03:11:12;;;;;;;;;;;;;;;29.07;38.98;96983.31;5049653;28;1667;-55
2021/07/26 03:13:38;;;;;;;;;;;;;;;29.10;39.10;96976.84;5049323;28;1479;-55
2021/07/26 03:16:06;;;;;;;;;;;;;;;29.06;38.95;96978.13;5047399;28;1661;-53
2021/07/26 03:18:31;;;;;;;;;;;;;;;29.07;39.07;96974.47;5049613;28;1136;-55
2021/07/26 03:20:57;;;;;;;;;;;;;;;29.16;39.10;96976.22;5049072;28;1076;-55
2021/07/26 03:23:22;;;;;;;;;;;;;;;29.18;38.71;96987.50;5051816;28;1251;-54
2021/07/26 03:25:47;;;;;;;;;;;;;;;29.12;38.98;96980.16;5049397;28;2086;-55
2021/07/26 03:28:12;;;;;;;;;;;;;;;29.04;39.25;96985.44;5050394;28;1906;-56
2021/07/26 03:30:38;;;;;;;;;;;;;;;29.02;39.17;96990.06;5051251;28;1243;-54
2021/07/26 03:33:03;;;;;;;;;;;;;;;29.12;39.09;96991.63;5048942;28;1299;-54
2021/07/26 03:35:28;;;;;;;;;;;;;;;29.11;39.23;97003.22;5048169;28;1614;-56
2021/07/26 03:37:53;;;;;;;;;;;;;;;29.15;39.20;96995.78;5048919;28;1235;-54
2021/07/26 03:40:19;;;;;;;;;;;;;;;29.16;39.22;97000.94;5049460;28;1606;-55
2021/07/26 03:42:44;;;;;;;;;;;;;;;29.11;39.35;97000.59;5049890;28;1246;-54
2021/07/26 03:45:10;;;;;;;;;;;;;;;29.19;39.06;97000.63;5049890;28;1301;-53
2021/07/26 03:47:35;;;;;;;;;;;;;;;29.15;39.03;97004.59;5042214;28;1971;-55
2021/07/26 03:50:01;;;;;;;;;;;;;;;29.13;39.24;96998.59;5049421;28;1310;-55
2021/07/26 03:52:26;;;;;;;;;;;;;;;29.15;39.22;97001.09;5048398;28;1254;-56
2021/07/26 03:54:54;;;;;;;;;;;;;;;29.07;39.07;96987.75;5048419;28;1716;-56
2021/07/26 03:57:19;;;;;;;;;;;;;;;29.03;39.13;96981.94;5050564;28;1057;-56
2021/07/26 03:59:45;;;;;;;;;;;;;;;29.08;39.14;96987.63;5050081;28;1278;-54
2021/07/26 04:02:10;;;;;;;;;;;;;;;29.11;38.93;96989.97;5048490;28;1548;-55
2021/07/26 04:04:35;;;;;;;;;;;;;;;29.13;39.11;96995.09;5045997;28;1598;-55
2021/07/26 04:07:04;;;;;;;;;;;;;;;29.10;39.30;96996.25;5048661;28;1906;-53
2021/07/26 04:09:37;;;;;;;;;;;;;;;29.10;39.26;96995.44;5050653;28;997;-55
2021/07/26 04:12:06;;;;;;;;;;;;;;;29.11;39.11;96997.94;5048844;28;1584;-53
2021/07/26 04:14:35;;;;;;;;;;;;;;;29.01;39.33;96999.88;5045994;28;1545;-54
2021/07/26 04:17:01;;;;;;;;;;;;;;;29.14;39.32;97005.56;5050185;28;1184;-56
2021/07/26 04:19:26;;;;;;;;;;;;;;;29.01;39.26;97007.00;5047438;28;1378;-55
2021/07/26 04:21:52;;;;;;;;;;;;;;;29.07;38.99;97004.56;5047152;28;1679;-55
2021/07/26 04:24:18;;;;;;;;;;;;;;;29.00;39.20;97008.81;5041003;28;1592;-54
2021/07/26 04:26:44;;;;;;;;;;;;;;;29.03;39.32;97003.19;5048527;28;1914;-52
2021/07/26 04:29:09;;;;;;;;;;;;;;;29.11;38.91;97008.53;5050972;28;1192;-52
2021/07/26 04:31:34;;;;;;;;;;;;;;;29.09;38.98;97007.03;5051097;28;1230;-54
2021/07/26 04:33:59;;;;;;;;;;;;;;;29.05;38.99;97005.69;5047140;28;1545;-55
2021/07/26 04:36:25;;;;;;;;;;;;;;;29.07;39.36;97009.88;5046113;28;1465;-54
2021/07/26 04:38:50;;;;;;;;;;;;;;;29.15;39.23;97014.38;5047835;28;1180;-54
2021/07/26 04:41:15;;;;;;;;;;;;;;;29.20;39.02;97007.59;5048240;28;1613;-55
2021/07/26 04:43:40;;;;;;;;;;;;;;;29.14;39.01;97008.22;5047031;28;1144;-55
2021/07/26 04:46:09;;;;;;;;;;;;;;;29.14;38.85;97012.69;5048231;28;1299;-55
2021/07/26 04:48:34;;;;;;;;;;;;;;;29.08;39.05;97011.53;5047020;28;1957;-53
2021/07/26 04:50:59;;;;;;;;;;;;;;;29.10;39.12;97008.72;5048123;28;1137;-52
2021/07/26 04:53:24;;;;;;;;;;;;;;;29.08;39.30;97010.69;5045930;28;1506;-54
2021/07/26 04:55:50;;;;;;;;;;;;;;;29.12;39.20;97020.81;5047658;28;1586;-54
2021/07/26 04:58:15;;;;;;;;;;;;;;;29.10;39.22;97020.16;5049890;28;1223;-54
2021/07/26 05:00:40;;;;;;;;;;;;;;;29.08;39.23;97022.16;5046895;28;1316;-54
2021/07/26 05:03:08;;;;;;;;;;;;;;;29.11;39.28;97019.16;5047265;28;1117;-55
2021/07/26 05:05:36;;;;;;;;;;;;;;;29.06;39.24;97016.13;5045516;28;1687;-55
2021/07/26 05:08:02;;;;;;;;;;;;;;;29.22;38.99;97017.22;5046804;28;1902;-52
2021/07/26 05:10:27;;;;;;;;;;;;;;;29.16;39.13;97013.41;5045330;28;1605;-55
2021/07/26 05:12:52;;;;;;;;;;;;;;;29.10;39.30;97012.19;5046525;28;1254;-58
2021/07/26 05:17:45;;;;;;;;;;;;;;;29.04;39.19;97018.13;5026320;28;1521;-53
2021/07/26 05:20:10;;;;;;;;;;;;;;;29.42;38.60;97024.00;4963602;28;1481;-53
2021/07/26 05:22:36;;;;;;;;;;;;;;;29.21;38.94;97029.69;5028800;28;1575;-52
2021/07/26 05:25:02;;;;;;;;;;;;;;;29.11;39.31;97028.97;5026968;28;1563;-53
2021/07/26 05:27:28;;;;;;;;;;;;;;;29.01;39.36;97026.41;5034032;28;1918;-55
2021/07/26 05:29:53;;;;;;;;;;;;;;;29.07;39.30;97024.94;5037400;28;982;-55
2021/07/26 05:32:18;;;;;;;;;;;;;;;29.03;39.35;97027.06;5038567;28;1100;-52
2021/07/26 05:34:46;;;;;;;;;;;;;;;29.10;38.96;97030.78;5039743;28;1172;-53
2021/07/26 05:37:11;;;;;;;;;;;;;;;29.04;39.14;97038.53;5037991;28;1364;-53
2021/07/26 05:39:36;;;;;;;;;;;;;;;29.07;39.29;97046.16;5039668;28;1242;-53
2021/07/26 05:42:02;;;;;;;;;;;;;;;29.01;39.49;97042.34;5038231;28;1677;-53
2021/07/26 05:44:27;;;;;;;;;;;;;;;29.10;39.13;97045.88;5040157;28;1255;-52
2021/07/26 05:46:52;;;;;;;;;;;;;;;29.10;39.11;97048.53;5040424;28;1902;-55
2021/07/26 05:49:17;;;;;;;;;;;;;;;29.13;39.02;97034.94;5034764;28;1701;-53
2021/07/26 05:51:43;;;;;;;;;;;;;;;29.02;39.39;97043.16;5038958;28;1132;-53
2021/07/26 05:54:08;;;;;;;;;;;;;;;29.02;39.43;97045.81;5038456;28;1227;-52
2021/07/26 05:56:40;;;;;;;;;;;;;;;29.09;39.01;97041.56;5039075;28;1524;-52
2021/07/26 05:59:05;;;;;;;;;;;;;;;29.02;39.36;97040.50;5037512;28;1235;-53
2021/07/26 06:01:49;;;;;;;;;;;;;;;29.04;39.37;97049.16;5039847;28;1255;-53
2021/07/26 06:04:20;;;;;;;;;;;;;;;29.06;39.06;97049.81;5038957;28;1330;-53
2021/07/26 06:06:46;;;;;;;;;;;;;;;29.07;39.29;97052.34;5038055;28;2001;-53
2021/07/26 06:09:12;;;;;;;;;;;;;;;29.00;39.50;97048.63;5036530;28;1507;-53
2021/07/26 06:11:37;;;;;;;;;;;;;;;29.16;39.14;97046.09;5038066;28;1483;-53
2021/07/26 06:14:02;;;;;;;;;;;;;;;29.17;39.19;97053.06;5043692;28;1384;-53
2021/07/26 06:16:27;;;;;;;;;;;;;;;29.12;39.30;97047.38;5043407;28;1272;-52
2021/07/26 06:18:53;;;;;;;;;;;;;;;29.08;39.04;97046.03;5041476;28;1605;-54
2021/07/26 06:21:18;;;;;;;;;;;;;;;29.15;38.84;97035.59;5042450;28;1125;-52
2021/07/26 06:23:43;;;;;;;;;;;;;;;29.02;39.21;97029.91;5041684;28;1437;-53
2021/07/26 06:26:09;;;;;;;;;;;;;;;29.15;39.09;97028.50;5043201;28;1571;-53
2021/07/26 06:28:34;;;;;;;;;;;;;;;29.05;39.34;97027.75;5040553;28;1965;-53
2021/07/26 06:31:03;;;;;;;;;;;;;;;28.96;39.38;97031.34;5043067;28;1140;-54
2021/07/26 06:33:28;;;;;;;;;;;;;;;29.05;39.28;97032.22;5035560;28;2101;-53
2021/07/26 06:35:54;;;;;;;;;;;;;;;29.09;39.19;97045.06;5044025;28;1219;-54
2021/07/26 06:38:19;;;;;;;;;;;;;;;29.06;39.09;97045.34;5037878;28;1729;-51
2021/07/26 06:40:44;;;;;;;;;;;;;;;29.07;39.11;97047.03;5040922;28;1618;-52
2021/07/26 06:43:09;;;;;;;;;;;;;;;29.01;39.29;97037.03;5043602;28;1195;-51
2021/07/26 06:45:35;;;;;;;;;;;;;;;29.16;39.06;97040.78;5038684;28;1401;-53
2021/07/26 06:48:00;;;;;;;;;;;;;;;29.10;39.25;97038.75;5043932;28;1957;-53
2021/07/26 06:50:25;;;;;;;;;;;;;;;29.05;39.39;97048.16;5041247;28;1758;-53
2021/07/26 06:52:50;;;;;;;;;;;;;;;29.06;39.32;97049.81;5043291;28;1261;-54
2021/07/26 06:55:15;;;;;;;;;;;;;;;29.02;39.29;97048.47;5040286;28;1503;-52
2021/07/26 06:57:41;;;;;;;;;;;;;;;29.09;39.23;97047.69;5039584;28;1542;-53
2021/07/26 07:00:06;;;;;;;;;;;;;;;29.09;39.03;97058.31;5040805;28;1255;-53
2021/07/26 07:02:32;;;;;;;;;;;;;;;29.09;39.23;97060.97;5042056;28;1256;-53
2021/07/26 07:04:57;;;;;;;;;;;;;;;29.01;39.18;97063.56;5041998;28;1204;-54
2021/07/26 07:07:22;;;;;;;;;;;;;;;29.06;39.24;97060.44;5040399;28;1902;-51
2021/07/26 07:09:47;;;;;;;;;;;;;;;29.05;39.24;97059.59;5038127;28;1766;-54
2021/07/26 07:12:19;;;;;;;;;;;;;;;29.10;38.98;97061.81;5038392;28;1778;-53
2021/07/26 07:14:44;;;;;;;;;;;;;;;28.97;39.43;97059.53;5039873;28;1094;-53
2021/07/26 07:17:09;;;;;;;;;;;;;;;29.03;39.52;97053.63;5038393;28;1365;-52
2021/07/26 07:19:38;;;;;;;;;;;;;;;29.06;39.39;97058.63;5039813;28;1571;-52
2021/07/26 07:22:03;;;;;;;;;;;;;;;29.01;39.52;97060.91;5038062;28;1531;-53
2021/07/26 07:24:28;;;;;;;;;;;;;;;29.07;39.59;97068.28;5041420;28;1168;-54
2021/07/26 07:26:53;;;;;;;;;;;;;;;29.12;39.50;97073.94;5035170;28;1921;-53
2021/07/26 07:29:18;;;;;;;;;;;;;;;29.10;39.58;97073.25;5037789;28;1328;-54
2021/07/26 07:31:44;;;;;;;;;;;;;;;29.03;39.69;97079.34;5039081;28;1294;-53
2021/07/26 07:34:11;;;;;;;;;;;;;;;29.14;39.26;97074.59;5041754;28;1178;-53
2021/07/26 07:36:36;;;;;;;;;;;;;;;29.18;39.41;97081.28;5033428;28;1646;-53
2021/07/26 07:39:01;;;;;;;;;;;;;;;29.17;39.50;97084.09;5029788;28;1910;-54
2021/07/26 07:41:26;;;;;;;;;;;;;;;29.14;39.23;97084.41;5035894;28;1922;-53
2021/07/26 07:43:52;;;;;;;;;;;;;;;29.00;39.77;97075.19;5026593;28;1652;-53
2021/07/26 07:46:19;;;;;;;;;;;;;;;29.01;39.81;97076.84;5031233;28;1500;-53
2021/07/26 07:48:44;;;;;;;;;;;;;;;29.23;38.95;97082.63;5032806;28;1969;-54
2021/07/26 07:51:10;;;;;;;;;;;;;;;29.25;39.37;97093.94;5036566;28;1644;-55
2021/07/26 07:53:35;;;;;;;;;;;;;;;29.42;38.67;97093.91;5037617;28;1491;-54
2021/07/26 07:56:01;;;;;;;;;;;;;;;29.63;38.40;97096.22;5029219;28;1579;-54
2021/07/26 07:58:26;;;;;;;;;;;;;;;29.56;38.77;97089.88;5036122;28;1523;-54
2021/07/26 08:00:52;;;;;;;;;;;;;;;29.86;38.14;97095.66;5037423;28;1187;-54
2021/07/26 08:03:17;;;;;;;;;;;;;;;29.77;38.36;97093.94;5039451;28;1405;-54
2021/07/26 08:05:42;;;;;;;;;;;;;;;29.60;38.89;97095.69;5033816;28;1587;-54
2021/07/26 08:08:08;;;;;;;;;;;;;;;29.58;38.66;97100.34;5037421;28;1902;-55
2021/07/26 08:10:33;;;;;;;;;;;;;;;29.53;38.98;97097.31;5034282;28;1642;-53
2021/07/26 08:12:58;;;;;;;;;;;;;;;29.51;39.07;97099.28;5032160;28;1133;-53
2021/07/26 08:15:24;;;;;;;;;;;;;;;29.52;38.96;97107.09;5035543;28;1308;-53
2021/07/26 08:17:49;;;;;;;;;;;;;;;29.58;38.70;97106.47;5035922;28;1191;-54
2021/07/26 08:20:15;;;;;;;;;;;;;;;29.56;38.65;97103.16;5033291;28;1599;-53
2021/07/26 08:22:40;;;;;;;;;;;;;;;29.55;38.74;97113.94;5034075;28;1432;-54
2021/07/26 08:25:06;;;;;;;;;;;;;;;29.69;38.50;97103.53;5034697;28;1857;-53
2021/07/26 08:27:31;;;;;;;;;;;;;;;29.72;38.42;97105.91;5038273;28;1982;-53
2021/07/26 08:29:56;;;;;;;;;;;;;;;28.82;39.94;97096.38;5039567;28;1160;-57
2021/07/26 08:32:22;;;;;;;;;;;;;;;28.76;40.31;97096.19;5034875;28;1436;-55
2021/07/26 08:34:48;;;;;;;;;;;;;;;28.80;40.12;97097.53;5035019;28;1529;-57
2021/07/26 08:37:13;;;;;;;;;;;;;;;28.63;40.44;97093.91;5038132;28;1351;-56
2021/07/26 08:39:39;;;;;;;;;;;;;;;28.33;41.37;97098.56;5039734;28;1263;-53
2021/07/26 08:42:04;;;;;;;;;;;;;;;28.31;41.39;97092.59;5034200;28;1559;-52
2021/07/26 08:44:31;;;;;;;;;;;;;;;28.13;41.81;97093.53;5037461;28;1214;-54
2021/07/26 08:46:57;;;;;;;;;;;;;;;28.03;42.23;97083.78;5037034;28;1910;-54
2021/07/26 08:49:23;;;;;;;;;;;;;;;28.08;41.80;97078.88;5029620;28;1464;-54
2021/07/26 08:51:48;;;;;;;;;;;;;;;28.04;42.06;97069.56;5036254;28;1369;-52
2021/07/26 08:54:14;;;;;;;;;;;;;;;28.04;42.12;97066.91;5053899;28;1140;-54
2021/07/26 08:56:39;;;;;;;;;;;;;;;28.05;42.16;97065.09;5049954;28;1538;-54
2021/07/26 08:59:04;;;;;;;;;;;;;;;28.02;42.26;97065.38;5032657;28;1531;-52
2021/07/26 09:01:29;;;;;;;;;;;;;;;27.98;42.20;97070.16;5036944;28;1522;-54
2021/07/26 09:03:55;;;;;;;;;;;;;;;28.13;41.62;97059.06;5036104;28;1165;-52
2021/07/26 09:06:20;;;;;;;;;;;;;;;28.13;41.55;97051.94;5050084;28;1462;-53
2021/07/26 09:08:45;;;;;;;;;;;;;;;28.24;41.47;97058.84;5036183;28;2041;-52
2021/07/26 09:11:10;;;;;;;;;;;;;;;28.05;41.93;97057.97;5033807;28;1598;-55
2021/07/26 09:13:39;;;;;;;;;;;;;;;28.15;42.11;97060.56;5036355;28;1034;-52
2021/07/26 09:16:18;;;;;;;;;;;;;;;28.09;41.83;97059.34;5034316;28;1587;-54
2021/07/26 09:18:44;;;;;;;;;;;;;;;28.03;42.30;97067.88;5035873;28;1240;-55
2021/07/26 09:21:09;;;;;;;;;;;;;;;28.00;42.28;97070.81;5036398;28;1223;-53
2021/07/26 09:23:38;;;;;;;;;;;;;;;28.07;42.37;97061.31;5050298;28;2120;-55
2021/07/26 09:26:05;;;;;;;;;;;;;;;28.00;42.19;97048.78;5036436;28;1587;-54
2021/07/26 09:28:33;;;;;;;;;;;;;;;28.05;42.52;97047.38;5050543;28;1989;-53
2021/07/26 09:30:58;;;;;;;;;;;;;;;28.02;42.57;97045.00;5037380;28;1105;-53
2021/07/26 09:33:23;;;;;;;;;;;;;;;28.04;42.62;97044.84;5051834;28;1411;-53
2021/07/26 09:36:14;;;;;;;;;;;;;;;28.02;42.61;97046.81;5036725;28;1515;-52
2021/07/26 09:38:48;;;;;;;;;;;;;;;27.94;42.72;97065.28;5032649;28;1585;-54
2021/07/26 09:41:13;;;;;;;;;;;;;;;28.00;42.99;97070.00;5035742;28;1707;-54
2021/07/26 09:43:39;;;;;;;;;;;;;;;28.17;42.67;97071.00;5036265;28;1183;-53
2021/07/26 09:46:04;;;;;;;;;;;;;;;28.08;42.73;97076.22;5035457;28;1370;-53
2021/07/26 09:48:30;;;;;;;;;;;;;;;27.96;43.18;97077.38;5036914;28;1906;-54
2021/07/26 09:50:56;;;;;;;;;;;;;;;27.99;43.16;97071.81;5033965;28;1556;-54
2021/07/26 09:53:25;;;;;;;;;;;;;;;27.97;43.42;97073.78;5037221;28;1169;-55
2021/07/26 09:55:50;;;;;;;;;;;;;;;28.02;43.36;97071.50;5032965;28;1523;-53
2021/07/26 09:58:16;;;;;;;;;;;;;;;28.00;43.36;97073.47;5035707;28;2129;-52
2021/07/26 10:00:41;;;;;;;;;;;;;;;27.97;43.65;97065.00;5035552;28;1416;-55
2021/07/26 10:03:11;;;;;;;;;;;;;;;28.17;43.26;97066.53;5037617;28;1132;-54
2021/07/26 10:05:36;;;;;;;;;;;;;;;28.14;42.96;97063.38;5035267;28;1446;-53
2021/07/26 10:08:02;;;;;;;;;;;;;;;28.13;42.87;97070.50;5034017;28;1879;-51
2021/07/26 10:10:27;;;;;;;;;;;;;;;28.10;43.17;97076.06;5034750;28;1626;-52
2021/07/26 10:12:52;;;;;;;;;;;;;;;28.02;43.43;97076.81;5038486;28;1080;-53
2021/07/26 10:15:19;;;;;;;;;;;;;;;28.10;42.86;97079.56;5037611;28;1275;-53
2021/07/26 10:17:44;;;;;;;;;;;;;;;28.07;43.08;97086.97;5034177;28;1544;-54
2021/07/26 10:20:09;;;;;;;;;;;;;;;28.23;42.62;97084.50;5052872;28;1309;-54
2021/07/26 10:22:34;;;;;;;;;;;;;;;28.06;42.90;97077.38;5034979;28;1317;-53
2021/07/26 10:25:00;;;;;;;;;;;;;;;27.98;43.20;97079.91;5036169;28;1646;-54
2021/07/26 10:27:29;;;;;;;;;;;;;;;28.03;42.92;97083.78;5050512;28;1918;-52
2021/07/26 10:29:57;;;;;;;;;;;;;;;27.98;43.22;97082.56;5037751;28;1549;-54
2021/07/26 10:32:37;;;;;;;;;;;;;;;28.21;42.23;97083.00;5036611;28;1070;-54
2021/07/26 10:35:03;;;;;;;;;;;;;;;28.15;42.64;97087.06;5037363;28;1445;-53
2021/07/26 10:37:45;;;;;;;;;;;;;;;27.97;43.25;97092.34;5034391;28;1495;-53
2021/07/26 10:40:20;;;;;;;;;;;;;;;27.95;43.38;97091.63;5034465;28;1546;-54
2021/07/26 10:42:46;;;;;;;;;;;;;;;27.95;43.39;97081.03;5035675;28;1113;-51
2021/07/26 10:45:28;;;;;;;;;;;;;;;27.96;43.15;97088.00;5051674;28;1329;-54
2021/07/26 10:48:12;;;;;;;;;;;;;;;27.99;43.24;97087.72;5050648;28;1902;-54
2021/07/26 10:50:37;;;;;;;;;;;;;;;27.97;42.96;97091.50;5029383;28;1670;-54
2021/07/26 10:53:03;;;;;;;;;;;;;;;28.21;42.41;97090.97;5035815;28;1472;-54
2021/07/26 10:55:47;;;;;;;;;;;;;;;27.99;43.03;97085.06;5051258;28;1586;-53
2021/07/26 10:58:14;;;;;;;;;;;;;;;27.96;43.11;97088.00;5039549;28;1211;-53
2021/07/26 11:00:40;;;;;;;;;;;;;;;27.95;43.01;97080.19;5054834;28;1266;-54
2021/07/26 11:03:05;;;;;;;;;;;;;;;27.94;43.29;97083.84;5041079;28;1354;-53
2021/07/26 11:05:30;;;;;;;;;;;;;;;27.95;43.15;97080.19;5054542;28;1654;-54
2021/07/26 11:08:14;;;;;;;;;;;;;;;27.96;43.01;97081.84;5040764;28;1970;-53
2021/07/26 11:10:52;;;;;;;;;;;;;;;27.93;42.92;97082.16;5039249;28;1503;-54
2021/07/26 11:13:18;;;;;;;;;;;;;;;27.91;43.40;97077.03;5037242;28;1657;-53
2021/07/26 11:15:43;;;;;;;;;;;;;;;27.95;43.13;97069.59;5057332;28;1274;-54
2021/07/26 11:18:21;;;;;;;;;;;;;;;27.94;43.02;97071.41;5055753;28;1214;-55
2021/07/26 11:20:56;;;;;;;;;;;;;;;27.93;43.20;97075.06;5035883;28;1483;-55
2021/07/26 11:23:51;;;;;;;;;;;;;;;27.93;42.92;97069.75;5037558;28;1153;-54
2021/07/26 11:26:25;;;;;;;;;;;;;;;27.97;42.98;97065.00;5032981;28;1522;-53
2021/07/26 11:28:51;;;;;;;;;;;;;;;27.93;43.22;97061.78;5039180;28;1925;-54
2021/07/26 11:31:23;;;;;;;;;;;;;;;27.97;42.90;97057.06;5039853;28;1157;-54
2021/07/26 11:33:48;;;;;;;;;;;;;;;27.94;43.23;97060.81;5038174;28;1228;-53
2021/07/26 11:36:14;;;;;;;;;;;;;;;27.97;43.02;97065.84;5038608;28;1591;-54
2021/07/26 11:38:55;;;;;;;;;;;;;;;27.96;43.20;97055.34;5035692;28;1306;-54
2021/07/26 11:41:20;;;;;;;;;;;;;;;27.93;43.21;97059.16;5037979;28;1579;-53
2021/07/26 11:43:45;;;;;;;;;;;;;;;27.97;42.92;97057.88;5040476;28;1148;-53
2021/07/26 11:46:10;;;;;;;;;;;;;;;27.95;43.12;97059.00;5052841;28;1424;-55
2021/07/26 11:48:36;;;;;;;;;;;;;;;27.92;42.79;97046.88;5039170;28;1902;-55
2021/07/26 11:51:01;;;;;;;;;;;;;;;27.95;42.88;97054.53;5038732;28;1228;-54
2021/07/26 11:53:27;;;;;;;;;;;;;;;27.94;42.90;97047.56;5051504;28;1388;-54
2021/07/26 11:55:52;;;;;;;;;;;;;;;27.97;42.82;97049.94;5037265;28;1627;-57
2021/07/26 11:58:18;;;;;;;;;;;;;;;27.95;43.02;97049.22;5039956;28;1203;-53
2021/07/26 12:00:44;;;;;;;;;;;;;;;27.96;43.01;97040.28;5056014;28;1339;-53
2021/07/26 12:03:09;;;;;;;;;;;;;;;27.92;42.98;97046.88;5035690;28;1527;-53
2021/07/26 12:05:35;;;;;;;;;;;;;;;27.98;42.93;97038.34;5055260;28;1284;-53
2021/07/26 12:08:00;;;;;;;;;;;;;;;27.92;42.88;97038.94;5035149;28;1902;-51
2021/07/26 12:10:35;;;;;;;;;;;;;;;27.98;42.60;97038.34;5039699;28;1665;-55
2021/07/26 12:13:14;;;;;;;;;;;;;;;27.92;42.92;97036.28;5035613;28;1314;-53
2021/07/26 12:15:39;;;;;;;;;;;;;;;27.94;43.12;97038.78;5039546;28;1365;-53
2021/07/26 12:18:10;;;;;;;;;;;;;;;27.95;42.73;97043.91;5038504;28;1324;-55
2021/07/26 12:20:39;;;;;;;;;;;;;;;27.96;42.70;97050.88;5039261;28;1978;-54
2021/07/26 12:23:11;;;;;;;;;;;;;;;27.92;42.83;97046.88;5038644;28;1176;-54
2021/07/26 12:25:55;;;;;;;;;;;;;;;27.92;43.07;97048.69;5036897;28;1677;-53
2021/07/26 12:28:39;;;;;;;;;;;;;;;27.85;43.24;97037.84;5034780;28;1910;-53
2021/07/26 12:31:22;;;;;;;;;;;;;;;27.87;42.98;97035.88;5037754;28;1156;-51
2021/07/26 12:33:48;;;;;;;;;;;;;;;27.95;42.82;97027.19;5037215;28;1267;-55
2021/07/26 12:36:13;;;;;;;;;;;;;;;28.06;42.62;97022.53;5054476;28;1279;-53
2021/07/26 12:38:39;;;;;;;;;;;;;;;28.03;42.65;97019.31;5035640;28;1621;-52
2021/07/26 12:41:07;;;;;;;;;;;;;;;27.92;42.89;97009.78;5033092;28;1564;-55
2021/07/26 12:43:32;;;;;;;;;;;;;;;27.94;43.17;97005.16;5034233;28;1390;-54
2021/07/26 12:45:57;;;;;;;;;;;;;;;27.94;43.03;96999.84;5033851;28;1296;-53
2021/07/26 12:48:22;;;;;;;;;;;;;;;27.94;42.98;96994.56;5037816;28;1957;-51
2021/07/26 12:50:48;;;;;;;;;;;;;;;27.97;43.01;96993.44;5034028;28;1579;-54
2021/07/26 12:53:13;;;;;;;;;;;;;;;27.93;42.97;96986.75;5039208;28;1128;-54
2021/07/26 12:55:39;;;;;;;;;;;;;;;27.91;42.97;96972.84;5034441;28;1661;-54
2021/07/26 12:58:05;;;;;;;;;;;;;;;28.19;42.03;96974.41;5039706;28;1037;-55